Time;durP1;ratioP1;P1;durP2;ratioP2;P2;SDS_P1;SDS_P2;PMS_P1;PMS_P2;Temp;Humidity;BMP_temperature;BMP_pressure;BME280_temperature;BME280_humidity;BME280_pressure;Samples;Min_cycle;Max_cycle;Signal;HPM_P1;HPM_P2
2023/08/08 00:00:54;;;;;;;3.03;2.27;;;12.50;99.90;;;;;;5094181;28;20443;-61
2023/08/08 00:03:20;;;;;;;4.23;2.80;;;12.50;99.90;;;;;;5097346;28;20462;-61
2023/08/08 00:05:47;;;;;;;3.13;2.30;;;12.50;99.90;;;;;;5099528;28;20442;-61
2023/08/08 00:08:14;;;;;;;3.50;2.37;;;12.50;99.90;;;;;;5097803;28;20787;-61
2023/08/08 00:10:42;;;;;;;3.80;2.43;;;12.40;99.90;;;;;;5094832;28;20452;-60
2023/08/08 00:13:09;;;;;;;5.07;2.23;;;12.40;99.90;;;;;;5095537;28;20898;-61
2023/08/08 00:15:36;;;;;;;3.07;2.40;;;12.40;99.90;;;;;;5097888;28;20443;-61
2023/08/08 00:18:03;;;;;;;2.50;2.17;;;12.40;99.90;;;;;;5096001;28;20889;-61
2023/08/08 00:20:30;;;;;;;3.80;2.80;;;12.40;99.90;;;;;;5096260;28;20954;-62
2023/08/08 00:22:56;;;;;;;3.73;2.30;;;12.50;99.90;;;;;;5096137;28;20523;-60
2023/08/08 00:25:23;;;;;;;5.40;2.43;;;12.50;99.90;;;;;;5095950;28;21011;-61
2023/08/08 00:27:52;;;;;;;3.70;1.90;;;12.50;99.90;;;;;;5097283;28;20442;-60
2023/08/08 00:30:18;;;;;;;5.50;2.50;;;12.50;99.90;;;;;;5098669;28;20990;-61
2023/08/08 00:32:45;;;;;;;2.03;1.87;;;12.50;99.90;;;;;;5098452;28;20462;-61
2023/08/08 00:35:12;;;;;;;3.87;2.50;;;12.60;99.90;;;;;;5097825;28;20946;-62
2023/08/08 00:37:39;;;;;;;5.13;2.37;;;12.60;99.90;;;;;;5097959;28;20473;-61
2023/08/08 00:40:07;;;;;;;2.50;2.30;;;12.60;99.90;;;;;;5098051;28;20460;-61
2023/08/08 00:42:34;;;;;;;2.70;2.00;;;12.60;99.90;;;;;;5097904;28;20462;-61
2023/08/08 00:45:03;;;;;;;4.40;2.57;;;12.70;99.90;;;;;;5097465;28;20445;-61
2023/08/08 00:47:31;;;;;;;7.23;3.00;;;12.60;99.90;;;;;;5097662;28;20495;-61
2023/08/08 00:49:58;;;;;;;4.53;2.57;;;12.60;99.90;;;;;;5097767;28;20446;-61
2023/08/08 00:52:25;;;;;;;4.03;2.80;;;12.70;99.90;;;;;;5097532;28;20462;-61
2023/08/08 00:54:52;;;;;;;9.83;2.73;;;12.70;99.90;;;;;;5096815;28;20772;-61
2023/08/08 00:57:19;;;;;;;4.20;2.27;;;12.60;99.90;;;;;;5097258;28;20478;-61
2023/08/08 00:59:46;;;;;;;2.80;2.23;;;12.60;99.90;;;;;;5097217;28;20444;-61
2023/08/08 01:02:14;;;;;;;2.87;2.47;;;12.60;99.90;;;;;;5097394;28;20472;-61
2023/08/08 01:04:41;;;;;;;6.57;2.80;;;12.50;99.90;;;;;;5097037;28;20470;-61
2023/08/08 01:07:17;;;;;;;3.87;3.07;;;12.50;99.90;;;;;;5096958;28;20807;-61
2023/08/08 01:09:49;;;;;;;3.80;2.40;;;12.50;99.90;;;;;;5097317;28;20457;-61
2023/08/08 01:12:16;;;;;;;4.70;2.80;;;12.50;99.90;;;;;;5097474;28;20997;-60
2023/08/08 01:14:45;;;;;;;3.70;2.23;;;12.50;99.90;;;;;;5097413;28;20449;-61
2023/08/08 01:20:37;;;;;;;3.40;2.33;;;12.40;99.90;;;;;;5096530;28;20467;-61
2023/08/08 01:23:13;;;;;;;3.80;2.20;;;12.50;99.90;;;;;;5096137;28;21006;-61
2023/08/08 01:25:42;;;;;;;4.80;3.27;;;12.50;99.90;;;;;;5096326;28;20896;-61
2023/08/08 01:28:09;;;;;;;5.60;2.60;;;12.50;99.90;;;;;;5097208;28;20434;-61
2023/08/08 01:30:36;;;;;;;2.70;2.50;;;12.50;99.90;;;;;;5096435;28;20447;-62
2023/08/08 01:33:02;;;;;;;3.37;2.20;;;12.50;99.90;;;;;;5096877;28;20458;-61
2023/08/08 01:35:34;;;;;;;3.40;2.40;;;12.50;99.90;;;;;;5095983;28;20438;-61
2023/08/08 01:38:08;;;;;;;3.77;2.17;;;12.50;99.90;;;;;;5096271;28;20459;-61
2023/08/08 01:40:37;;;;;;;3.27;2.90;;;12.50;99.90;;;;;;5095951;28;20432;-61
2023/08/08 01:43:06;;;;;;;3.20;2.90;;;12.50;99.90;;;;;;5095760;28;20471;-60
2023/08/08 01:45:33;;;;;;;5.23;3.10;;;12.50;99.90;;;;;;5095782;28;20442;-60
2023/08/08 01:48:00;;;;;;;3.90;2.87;;;12.50;99.90;;;;;;5096327;28;20805;-60
2023/08/08 01:50:27;;;;;;;4.13;2.73;;;12.50;99.90;;;;;;5097162;28;20449;-61
2023/08/08 01:52:54;;;;;;;4.43;2.40;;;12.40;99.90;;;;;;5096068;28;20561;-62
2023/08/08 01:55:21;;;;;;;5.07;3.00;;;12.40;99.90;;;;;;5096249;28;20464;-60
2023/08/08 01:57:47;;;;;;;2.67;2.47;;;12.40;99.90;;;;;;5095763;28;20482;-60
2023/08/08 02:00:16;;;;;;;2.37;2.17;;;12.40;99.90;;;;;;5095777;28;20536;-61
2023/08/08 02:02:43;;;;;;;3.17;2.00;;;12.50;99.90;;;;;;5095630;28;20466;-61
2023/08/08 02:05:09;;;;;;;2.67;2.47;;;12.50;99.90;;;;;;5095703;28;20453;-61
2023/08/08 02:07:36;;;;;;;4.30;3.00;;;12.60;99.90;;;;;;5095599;28;20427;-60
2023/08/08 02:10:03;;;;;;;2.30;2.10;;;12.70;99.90;;;;;;5095706;28;20446;-61
2023/08/08 02:12:30;;;;;;;6.43;2.23;;;12.70;99.90;;;;;;5095646;28;20508;-60
2023/08/08 02:14:57;;;;;;;3.33;2.70;;;12.70;99.90;;;;;;5096017;28;20449;-61
2023/08/08 02:17:26;;;;;;;3.90;2.70;;;12.80;99.90;;;;;;5095299;28;20851;-61
2023/08/08 02:19:53;;;;;;;4.37;2.60;;;12.70;99.90;;;;;;5095423;28;20781;-61
2023/08/08 02:22:20;;;;;;;4.87;2.57;;;12.80;99.90;;;;;;5094894;28;20476;-61
2023/08/08 02:24:46;;;;;;;5.00;2.60;;;12.80;99.90;;;;;;5096487;28;20427;-61
2023/08/08 02:27:14;;;;;;;7.20;2.80;;;12.80;99.90;;;;;;5096059;28;20537;-61
2023/08/08 02:29:40;;;;;;;3.70;2.60;;;12.70;99.90;;;;;;5094786;28;21034;-61
2023/08/08 02:32:08;;;;;;;2.77;2.57;;;12.70;99.90;;;;;;5095028;28;20442;-61
2023/08/08 02:34:36;;;;;;;4.27;2.63;;;12.70;99.90;;;;;;5095057;28;20460;-61
2023/08/08 02:37:03;;;;;;;3.67;2.80;;;12.60;99.90;;;;;;5095192;28;20485;-61
2023/08/08 02:39:29;;;;;;;4.80;2.93;;;12.70;99.90;;;;;;5095453;28;20451;-61
2023/08/08 02:41:56;;;;;;;10.13;3.80;;;12.80;99.90;;;;;;5094497;28;20947;-61
2023/08/08 02:44:23;;;;;;;4.67;3.20;;;12.80;99.90;;;;;;5095000;28;20449;-60
2023/08/08 02:46:50;;;;;;;3.57;2.90;;;12.90;99.90;;;;;;5094873;28;20445;-61
2023/08/08 02:49:16;;;;;;;5.30;3.63;;;12.90;99.90;;;;;;5094830;28;20457;-61
2023/08/08 02:51:44;;;;;;;5.90;3.03;;;13.00;99.90;;;;;;5093727;28;20434;-62
2023/08/08 02:54:11;;;;;;;3.50;2.70;;;13.00;99.90;;;;;;5095091;28;20467;-62
2023/08/08 02:56:38;;;;;;;5.57;3.30;;;13.10;99.90;;;;;;5094811;28;20442;-61
2023/08/08 02:59:05;;;;;;;4.30;3.03;;;13.10;99.90;;;;;;5094670;28;20504;-61
2023/08/08 03:01:31;;;;;;;6.00;3.70;;;13.10;99.90;;;;;;5094678;28;20789;-61
2023/08/08 03:03:59;;;;;;;5.83;3.70;;;13.10;99.90;;;;;;5094535;28;20458;-61
2023/08/08 03:06:26;;;;;;;4.73;3.63;;;13.10;99.90;;;;;;5094147;28;20442;-61
2023/08/08 03:08:54;;;;;;;4.23;3.30;;;13.20;99.90;;;;;;5094449;28;20435;-61
2023/08/08 03:11:21;;;;;;;4.40;3.20;;;13.20;99.90;;;;;;5094436;28;20446;-62
2023/08/08 03:13:48;;;;;;;6.17;3.23;;;13.20;99.90;;;;;;5094242;28;20459;-61
2023/08/08 03:16:14;;;;;;;10.63;4.10;;;13.20;99.90;;;;;;5094444;28;20434;-61
2023/08/08 03:18:42;;;;;;;6.10;3.33;;;13.20;99.90;;;;;;5094222;28;20474;-60
2023/08/08 03:21:08;;;;;;;4.23;3.70;;;13.20;99.90;;;;;;5093955;28;20811;-61
2023/08/08 03:23:35;;;;;;;4.93;3.30;;;13.30;99.90;;;;;;5093982;28;20469;-60
2023/08/08 03:26:03;;;;;;;5.17;3.43;;;13.30;99.90;;;;;;5094105;28;20450;-62
2023/08/08 03:28:30;;;;;;;5.20;3.33;;;13.40;99.90;;;;;;5094073;28;20438;-60
2023/08/08 03:30:57;;;;;;;6.50;3.77;;;13.40;99.90;;;;;;5094719;28;20434;-61
2023/08/08 03:33:23;;;;;;;6.50;2.87;;;13.40;99.90;;;;;;5093614;28;20470;-62
2023/08/08 03:35:50;;;;;;;4.10;3.30;;;13.40;99.90;;;;;;5093774;28;21031;-61
2023/08/08 03:38:17;;;;;;;7.33;3.87;;;13.50;99.90;;;;;;5093918;28;20478;-61
2023/08/08 03:40:44;;;;;;;6.07;3.70;;;13.50;99.90;;;;;;5093993;28;20442;-61
2023/08/08 03:43:12;;;;;;;6.80;3.23;;;13.50;99.90;;;;;;5093869;28;20462;-60
2023/08/08 03:45:40;;;;;;;4.60;3.80;;;13.50;99.90;;;;;;5093888;28;20431;-61
2023/08/08 03:48:07;;;;;;;7.63;3.47;;;13.50;99.90;;;;;;5093843;28;20456;-61
2023/08/08 03:50:34;;;;;;;5.20;3.70;;;13.50;99.90;;;;;;5093643;28;20442;-61
2023/08/08 03:53:00;;;;;;;5.13;3.10;;;13.50;99.90;;;;;;5093834;28;20466;-61
2023/08/08 03:55:27;;;;;;;10.13;3.03;;;13.50;99.90;;;;;;5093853;28;20466;-60
2023/08/08 03:57:54;;;;;;;4.93;3.20;;;13.50;99.90;;;;;;5093843;28;20500;-61
2023/08/08 04:00:22;;;;;;;4.10;2.50;;;13.50;99.90;;;;;;5093660;28;20434;-61
2023/08/08 04:02:49;;;;;;;11.57;3.53;;;13.50;99.90;;;;;;5093311;28;20466;-64
2023/08/08 04:05:16;;;;;;;4.10;3.70;;;13.50;99.90;;;;;;5093823;28;20438;-61
2023/08/08 04:07:43;;;;;;;5.53;3.00;;;13.50;99.90;;;;;;5093977;28;20442;-61
2023/08/08 04:12:03;;;;;;;5.43;3.37;;;13.50;99.90;;;;;;5141663;27;20542;-61
2023/08/08 04:14:30;;;;;;;4.70;3.20;;;13.50;99.90;;;;;;5144074;28;20447;-62
2023/08/08 04:16:57;;;;;;;5.80;2.73;;;13.60;99.90;;;;;;5143867;28;20437;-59
2023/08/08 04:19:24;;;;;;;5.73;2.93;;;13.60;99.90;;;;;;5142109;27;20443;-62
2023/08/08 04:21:50;;;;;;;4.30;2.70;;;13.60;99.90;;;;;;5141534;28;20437;-62
2023/08/08 04:24:17;;;;;;;3.43;3.10;;;13.60;99.90;;;;;;5142372;27;20520;-62
2023/08/08 04:26:44;;;;;;;3.10;2.77;;;13.70;99.90;;;;;;5139143;28;20520;-62
2023/08/08 04:29:12;;;;;;;5.77;3.30;;;13.70;99.90;;;;;;5133862;28;21043;-62
2023/08/08 04:31:39;;;;;;;5.50;2.87;;;13.70;99.90;;;;;;5132520;28;20476;-62
2023/08/08 04:34:06;;;;;;;4.17;2.90;;;13.70;99.90;;;;;;5136949;27;20483;-63
2023/08/08 04:36:33;;;;;;;4.47;3.10;;;13.70;99.90;;;;;;5132224;28;20441;-62
2023/08/08 04:38:59;;;;;;;4.90;3.20;;;13.80;99.90;;;;;;5134508;28;20444;-62
2023/08/08 04:41:26;;;;;;;3.33;2.63;;;13.80;99.90;;;;;;5134990;28;20443;-61
2023/08/08 04:43:53;;;;;;;5.40;2.90;;;13.80;99.90;;;;;;5136150;27;20460;-61
2023/08/08 04:46:21;;;;;;;6.33;2.90;;;13.80;99.90;;;;;;5135074;28;20444;-61
2023/08/08 04:48:48;;;;;;;3.53;2.60;;;13.80;99.90;;;;;;5135709;28;20497;-61
2023/08/08 04:51:14;;;;;;;4.47;3.10;;;13.90;99.90;;;;;;5134447;28;20483;-60
2023/08/08 04:53:41;;;;;;;2.40;2.20;;;13.90;99.90;;;;;;5134148;27;20827;-61
2023/08/08 04:56:08;;;;;;;5.13;3.20;;;13.90;99.90;;;;;;5136135;28;20436;-60
2023/08/08 04:58:34;;;;;;;4.10;3.70;;;13.90;99.90;;;;;;5134581;28;20452;-62
2023/08/08 05:01:01;;;;;;;4.73;3.73;;;14.00;99.90;;;;;;5133737;28;20433;-61
2023/08/08 05:03:29;;;;;;;4.17;2.50;;;14.00;99.90;;;;;;5135213;27;20470;-61
2023/08/08 05:05:56;;;;;;;7.00;3.20;;;14.00;99.90;;;;;;5134572;28;20441;-62
2023/08/08 05:08:23;;;;;;;3.43;2.97;;;14.00;99.90;;;;;;5135252;28;20432;-60
2023/08/08 05:10:49;;;;;;;4.43;3.40;;;14.10;99.90;;;;;;5134693;28;20486;-60
2023/08/08 05:13:16;;;;;;;4.43;3.50;;;14.10;99.90;;;;;;5136172;27;20988;-61
2023/08/08 05:15:43;;;;;;;4.90;3.00;;;14.20;99.90;;;;;;5135772;28;20432;-61
2023/08/08 05:18:10;;;;;;;4.47;3.37;;;14.20;99.90;;;;;;5136013;28;20437;-60
2023/08/08 05:20:38;;;;;;;4.07;3.27;;;14.20;99.90;;;;;;5133969;28;20432;-62
2023/08/08 05:23:05;;;;;;;3.43;2.90;;;14.30;99.90;;;;;;5122298;27;20488;-61
2023/08/08 05:25:32;;;;;;;3.80;3.50;;;14.30;99.90;;;;;;5121576;28;20441;-61
2023/08/08 05:27:58;;;;;;;3.77;3.37;;;14.30;99.90;;;;;;5119414;28;20437;-61
2023/08/08 05:30:25;;;;;;;4.90;3.53;;;14.30;99.90;;;;;;5122458;28;20820;-60
2023/08/08 05:32:52;;;;;;;5.87;3.37;;;14.40;99.90;;;;;;5121470;28;20464;-61
2023/08/08 05:35:19;;;;;;;4.70;3.60;;;14.50;99.90;;;;;;5119078;28;20474;-62
2023/08/08 05:37:47;;;;;;;4.53;3.63;;;14.50;99.90;;;;;;5118573;28;20953;-62
2023/08/08 05:40:14;;;;;;;4.03;3.73;;;14.60;99.90;;;;;;5119905;28;20445;-60
2023/08/08 05:42:41;;;;;;;4.70;3.50;;;14.60;99.90;;;;;;5118408;28;20850;-61
2023/08/08 05:45:09;;;;;;;6.17;3.77;;;14.70;99.90;;;;;;5117980;28;20433;-62
2023/08/08 05:47:36;;;;;;;3.63;3.00;;;14.80;99.90;;;;;;5123444;28;20442;-62
2023/08/08 05:50:03;;;;;;;5.00;4.20;;;14.90;99.90;;;;;;5121953;28;20448;-62
2023/08/08 05:52:30;;;;;;;4.73;3.60;;;15.00;99.90;;;;;;5119363;28;20476;-62
2023/08/08 05:54:59;;;;;;;5.60;3.60;;;15.10;99.90;;;;;;5117376;28;20445;-62
2023/08/08 05:57:26;;;;;;;3.57;3.20;;;15.20;99.90;;;;;;5117607;28;20438;-61
2023/08/08 05:59:53;;;;;;;3.80;3.47;;;15.30;99.90;;;;;;5117167;28;20539;-63
2023/08/08 06:02:19;;;;;;;6.87;3.80;;;15.40;99.90;;;;;;5117915;28;20454;-62
2023/08/08 06:04:46;;;;;;;5.60;4.00;;;15.40;99.90;;;;;;5117652;28;20441;-62
2023/08/08 06:07:13;;;;;;;6.53;3.73;;;15.50;99.90;;;;;;5117308;28;20433;-62
2023/08/08 06:09:40;;;;;;;6.30;3.47;;;15.50;99.90;;;;;;5116307;28;20452;-61
2023/08/08 06:12:09;;;;;;;3.73;3.40;;;15.60;99.90;;;;;;5117343;28;20462;-62
2023/08/08 06:14:36;;;;;;;4.00;3.23;;;15.70;99.90;;;;;;5116503;27;20449;-61
2023/08/08 06:17:03;;;;;;;3.83;3.50;;;15.70;99.90;;;;;;5116945;28;20452;-62
2023/08/08 06:19:30;;;;;;;5.77;3.00;;;15.70;99.90;;;;;;5117314;28;20434;-62
2023/08/08 06:21:57;;;;;;;4.27;3.27;;;15.70;99.90;;;;;;5116324;28;20923;-62
2023/08/08 06:24:23;;;;;;;5.57;3.57;;;15.60;99.90;;;;;;5116612;28;20539;-62
2023/08/08 06:26:50;;;;;;;5.67;3.40;;;15.60;99.90;;;;;;5116397;28;20433;-61
2023/08/08 06:29:18;;;;;;;4.00;3.40;;;15.70;99.90;;;;;;5117043;28;20460;-62
2023/08/08 06:31:45;;;;;;;4.57;3.60;;;15.80;99.90;;;;;;5116513;28;20500;-61
2023/08/08 06:34:12;;;;;;;7.77;3.77;;;15.90;99.90;;;;;;5115522;28;20832;-60
2023/08/08 06:36:38;;;;;;;3.70;3.40;;;16.20;99.90;;;;;;5116131;28;20437;-61
2023/08/08 06:39:05;;;;;;;5.30;3.70;;;16.40;99.90;;;;;;5116190;28;20445;-61
2023/08/08 06:41:32;;;;;;;4.97;3.70;;;16.50;99.90;;;;;;5117204;28;20472;-62
2023/08/08 06:43:59;;;;;;;7.10;3.90;;;16.60;99.90;;;;;;5116018;28;20464;-60
2023/08/08 06:46:27;;;;;;;6.60;5.50;;;16.60;99.90;;;;;;5115683;28;20940;-61
2023/08/08 06:48:56;;;;;;;6.83;4.23;;;16.70;99.90;;;;;;5115279;28;21003;-63
2023/08/08 06:51:24;;;;;;;6.97;3.43;;;16.80;99.90;;;;;;5118463;28;20573;-63
2023/08/08 06:53:51;;;;;;;4.23;3.83;;;17.00;99.90;;;;;;5116439;28;20462;-62
2023/08/08 06:56:17;;;;;;;5.80;3.63;;;17.10;99.90;;;;;;5116204;28;20449;-62
2023/08/08 06:58:44;;;;;;;5.70;3.00;;;17.20;99.90;;;;;;5116861;28;20449;-62
2023/08/08 07:01:11;;;;;;;4.23;2.90;;;17.30;99.90;;;;;;5116391;28;20473;-61
2023/08/08 07:03:39;;;;;;;3.50;3.20;;;17.20;99.90;;;;;;5115369;28;20509;-62
2023/08/08 07:06:06;;;;;;;3.80;2.63;;;17.20;99.90;;;;;;5115806;28;20429;-61
2023/08/08 07:08:33;;;;;;;3.20;2.90;;;17.20;99.90;;;;;;5115667;28;20434;-63
2023/08/08 07:11:00;;;;;;;6.07;3.73;;;17.20;99.90;;;;;;5114943;28;20863;-60
2023/08/08 07:13:26;;;;;;;6.73;2.40;;;17.30;99.90;;;;;;5114855;28;20999;-61
2023/08/08 07:15:53;;;;;;;11.57;2.70;;;17.30;99.90;;;;;;5114906;28;20918;-62
2023/08/08 07:18:20;;;;;;;5.33;2.27;;;17.40;99.90;;;;;;5116178;28;20445;-60
2023/08/08 07:20:49;;;;;;;7.03;2.83;;;17.40;99.90;;;;;;5115645;28;20444;-60
2023/08/08 07:23:16;;;;;;;3.53;2.93;;;17.40;99.90;;;;;;5115584;28;20567;-61
2023/08/08 07:25:43;;;;;;;3.77;2.37;;;17.40;99.90;;;;;;5115375;28;20435;-62
2023/08/08 07:28:09;;;;;;;2.83;2.37;;;17.50;99.80;;;;;;5115075;28;20927;-63
2023/08/08 07:30:36;;;;;;;2.60;2.30;;;17.60;98.50;;;;;;5115529;28;20449;-62
2023/08/08 07:33:03;;;;;;;7.73;3.30;;;17.60;97.30;;;;;;5115942;28;20468;-60
2023/08/08 07:35:30;;;;;;;3.37;2.27;;;17.60;96.10;;;;;;5115376;28;20427;-62
2023/08/08 07:37:58;;;;;;;5.10;3.10;;;17.60;96.00;;;;;;5115444;28;20442;-62
2023/08/08 07:40:25;;;;;;;3.13;1.90;;;17.60;95.10;;;;;;5115743;28;20447;-62
2023/08/08 07:42:52;;;;;;;2.83;2.00;;;17.50;95.20;;;;;;5115232;28;20463;-61
2023/08/08 07:45:19;;;;;;;3.23;2.30;;;17.50;95.20;;;;;;5114586;28;20448;-61
2023/08/08 07:47:46;;;;;;;6.80;2.67;;;17.50;95.20;;;;;;5114676;28;20441;-62
2023/08/08 07:50:13;;;;;;;2.57;2.27;;;17.60;95.00;;;;;;5116245;28;20465;-61
2023/08/08 07:52:40;;;;;;;5.43;2.50;;;17.70;94.00;;;;;;5115582;28;20490;-61
2023/08/08 07:55:09;;;;;;;3.90;2.13;;;17.80;92.70;;;;;;5115332;28;20444;-61
2023/08/08 07:57:36;;;;;;;3.70;2.20;;;17.90;91.30;;;;;;5115607;28;20437;-61
2023/08/08 08:00:09;;;;;;;3.10;1.90;;;18.00;90.60;;;;;;5115035;28;20934;-62
2023/08/08 08:02:36;;;;;;;2.63;2.07;;;18.10;88.80;;;;;;5115734;28;20554;-61
2023/08/08 08:05:05;;;;;;;2.60;2.00;;;18.00;87.70;;;;;;5116876;28;20436;-62
2023/08/08 08:07:32;;;;;;;6.43;1.83;;;18.00;87.50;;;;;;5113869;28;20448;-61
2023/08/08 08:09:59;;;;;;;3.00;1.73;;;17.90;86.60;;;;;;5115172;28;20535;-62
2023/08/08 08:12:27;;;;;;;2.07;1.80;;;17.80;85.90;;;;;;5114836;28;21009;-62
2023/08/08 08:14:54;;;;;;;4.70;2.30;;;17.70;86.00;;;;;;5114751;28;20445;-62
2023/08/08 08:17:20;;;;;;;4.90;1.90;;;17.70;85.60;;;;;;5114275;28;20452;-60
2023/08/08 08:19:47;;;;;;;3.17;2.03;;;17.80;85.10;;;;;;5113726;28;20459;-61
2023/08/08 08:22:14;;;;;;;5.33;2.03;;;18.00;85.20;;;;;;5114169;28;20436;-61
2023/08/08 08:24:41;;;;;;;6.60;2.00;;;18.40;83.00;;;;;;5114426;28;20801;-60
2023/08/08 08:27:07;;;;;;;5.97;2.17;;;18.60;79.80;;;;;;5114368;28;20490;-61
2023/08/08 08:29:36;;;;;;;3.97;2.00;;;18.60;78.60;;;;;;5114090;28;20433;-62
2023/08/08 08:32:03;;;;;;;4.60;3.13;;;18.90;77.20;;;;;;5114967;28;20518;-60
2023/08/08 08:34:29;;;;;;;2.73;1.80;;;19.00;75.60;;;;;;5115183;28;20501;-62
2023/08/08 08:36:56;;;;;;;2.63;1.77;;;19.10;74.20;;;;;;5114978;28;20803;-61
2023/08/08 08:39:23;;;;;;;3.93;1.60;;;19.20;73.20;;;;;;5115157;28;20852;-62
2023/08/08 08:42:01;;;;;;;6.80;1.80;;;19.30;72.30;;;;;;5115348;28;20494;-61
2023/08/08 08:44:31;;;;;;;3.00;1.30;;;19.50;71.70;;;;;;5115311;28;20484;-60
2023/08/08 08:47:02;;;;;;;3.83;1.77;;;19.50;70.30;;;;;;5116543;28;20455;-62
2023/08/08 08:49:31;;;;;;;4.73;1.70;;;19.40;69.90;;;;;;5116493;28;20414;-61
2023/08/08 08:52:00;;;;;;;3.73;1.60;;;19.30;69.80;;;;;;5116002;28;20473;-61
2023/08/08 08:54:29;;;;;;;5.57;2.10;;;19.30;69.50;;;;;;5115121;28;20939;-61
2023/08/08 08:56:56;;;;;;;3.80;2.03;;;19.20;69.50;;;;;;5121828;28;20437;-62
2023/08/08 08:59:23;;;;;;;2.30;1.80;;;19.10;68.90;;;;;;5123180;28;20441;-62
2023/08/08 09:01:51;;;;;;;2.30;1.50;;;18.90;69.20;;;;;;5123488;28;20898;-60
2023/08/08 09:04:21;;;;;;;3.37;2.00;;;18.70;69.80;;;;;;5124192;28;20976;-62
2023/08/08 09:06:48;;;;;;;2.70;1.73;;;18.60;70.20;;;;;;5121919;28;20427;-61
2023/08/08 09:09:16;;;;;;;2.93;2.07;;;18.50;71.10;;;;;;5120657;28;20945;-61
2023/08/08 09:11:45;;;;;;;3.37;2.50;;;18.50;72.00;;;;;;5120134;28;20548;-61
2023/08/08 09:14:19;;;;;;;4.80;2.70;;;18.50;73.30;;;;;;5122709;28;20453;-62
2023/08/08 09:16:47;;;;;;;2.20;2.00;;;18.60;74.40;;;;;;5119626;28;20470;-61
2023/08/08 09:19:14;;;;;;;3.80;2.17;;;18.80;75.70;;;;;;5119724;28;20440;-62
2023/08/08 09:21:42;;;;;;;4.10;2.27;;;19.20;76.30;;;;;;5117501;28;20438;-62
2023/08/08 09:24:09;;;;;;;2.30;2.07;;;19.60;76.20;;;;;;5118329;28;20484;-62
2023/08/08 09:26:36;;;;;;;3.53;2.10;;;20.00;75.80;;;;;;5118007;28;20441;-59
2023/08/08 09:29:03;;;;;;;4.77;2.70;;;20.20;73.60;;;;;;5118413;28;20444;-60
2023/08/08 09:31:30;;;;;;;3.30;2.07;;;20.00;73.70;;;;;;5118052;28;20441;-60
2023/08/08 09:33:58;;;;;;;7.13;4.80;;;19.80;74.20;;;;;;5117808;28;20487;-62
2023/08/08 09:36:25;;;;;;;4.10;1.80;;;19.70;74.50;;;;;;5117338;28;20460;-63
2023/08/08 09:38:53;;;;;;;2.67;1.80;;;19.50;75.00;;;;;;5117513;28;20970;-62
2023/08/08 09:41:21;;;;;;;4.10;2.80;;;19.40;75.20;;;;;;5119140;28;20445;-63
2023/08/08 09:43:48;;;;;;;3.87;2.40;;;19.20;75.30;;;;;;5117265;28;20883;-61
2023/08/08 09:46:15;;;;;;;5.00;2.70;;;19.10;75.30;;;;;;5117040;28;20433;-62
2023/08/08 09:48:43;;;;;;;4.23;2.37;;;19.00;75.80;;;;;;5117627;27;20434;-62
2023/08/08 09:51:10;;;;;;;3.13;2.70;;;19.10;76.30;;;;;;5117757;28;20541;-62
2023/08/08 09:53:37;;;;;;;3.77;3.10;;;19.00;76.50;;;;;;5117245;28;20485;-62
2023/08/08 09:56:06;;;;;;;3.40;2.57;;;19.00;77.00;;;;;;5117249;28;20947;-61
2023/08/08 09:58:33;;;;;;;2.50;2.10;;;19.10;77.10;;;;;;5117837;28;20456;-61
2023/08/08 10:01:00;;;;;;;2.90;1.90;;;19.30;76.10;;;;;;5118230;28;20449;-60
2023/08/08 10:03:29;;;;;;;5.70;2.23;;;19.40;74.60;;;;;;5117892;28;20817;-63
2023/08/08 10:05:56;;;;;;;4.13;2.47;;;19.50;72.60;;;;;;5117643;28;20441;-62
2023/08/08 10:08:23;;;;;;;3.30;2.30;;;19.60;71.90;;;;;;5117467;28;20439;-63
2023/08/08 10:10:51;;;;;;;2.60;1.90;;;19.60;70.80;;;;;;5117730;28;20462;-63
2023/08/08 10:13:23;;;;;;;4.90;2.73;;;19.40;70.60;;;;;;5118220;28;20481;-63
2023/08/08 10:15:51;;;;;;;4.50;2.40;;;19.40;71.20;;;;;;5118876;28;20432;-60
2023/08/08 10:18:19;;;;;;;2.43;2.07;;;19.50;71.00;;;;;;5117216;28;20455;-59
2023/08/08 10:20:48;;;;;;;3.70;2.10;;;19.70;70.10;;;;;;5119185;28;20453;-61
2023/08/08 10:23:16;;;;;;;5.20;2.30;;;19.80;68.80;;;;;;5118813;28;20863;-62
2023/08/08 10:25:45;;;;;;;2.43;2.00;;;19.90;66.10;;;;;;5118237;28;20538;-62
2023/08/08 10:28:14;;;;;;;3.90;2.30;;;20.00;65.00;;;;;;5117143;28;20452;-63
2023/08/08 10:30:46;;;;;;;3.10;1.90;;;20.10;64.90;;;;;;5119266;28;20549;-61
2023/08/08 10:33:20;;;;;;;4.90;2.70;;;20.20;65.30;;;;;;5117972;28;20478;-63
2023/08/08 10:35:58;;;;;;;4.57;2.20;;;20.20;65.50;;;;;;5117923;28;20450;-62
2023/08/08 10:38:25;;;;;;;4.00;2.50;;;20.20;65.80;;;;;;5117582;28;20941;-62
2023/08/08 10:40:58;;;;;;;3.53;2.50;;;20.50;65.50;;;;;;5117934;28;20433;-61
2023/08/08 10:43:27;;;;;;;3.80;2.17;;;20.50;65.10;;;;;;5117725;28;20538;-63
2023/08/08 10:45:58;;;;;;;4.93;2.00;;;20.60;63.90;;;;;;5119093;28;20468;-62
2023/08/08 10:48:26;;;;;;;3.77;1.80;;;20.40;63.20;;;;;;5119156;28;20439;-61
2023/08/08 10:50:55;;;;;;;3.13;1.77;;;20.20;63.10;;;;;;5118947;28;20470;-63
2023/08/08 10:53:25;;;;;;;5.67;2.10;;;20.00;63.10;;;;;;5118166;28;20547;-64
2023/08/08 10:55:59;;;;;;;4.07;1.87;;;19.70;63.70;;;;;;5118094;28;20814;-63
2023/08/08 10:58:36;;;;;;;2.53;2.00;;;19.70;64.30;;;;;;5117757;28;20475;-60
2023/08/08 11:01:07;;;;;;;2.73;1.53;;;19.70;65.00;;;;;;5117744;28;20439;-61
2023/08/08 11:03:35;;;;;;;2.60;1.93;;;20.00;64.50;;;;;;5117523;28;20457;-63
2023/08/08 11:06:04;;;;;;;6.90;2.03;;;20.10;64.40;;;;;;5117851;28;20517;-62
2023/08/08 11:08:31;;;;;;;1.80;1.50;;;20.20;62.80;;;;;;5116981;28;20438;-62
2023/08/08 11:10:58;;;;;;;3.30;1.80;;;20.40;62.00;;;;;;5116361;28;20856;-62
2023/08/08 11:13:25;;;;;;;2.37;2.10;;;20.50;61.50;;;;;;5117829;28;20492;-62
2023/08/08 11:15:52;;;;;;;2.67;1.80;;;20.40;61.70;;;;;;5116972;28;20448;-61
2023/08/08 11:18:20;;;;;;;2.33;1.70;;;20.40;61.90;;;;;;5117507;28;20438;-61
2023/08/08 11:20:47;;;;;;;3.90;1.60;;;20.50;61.50;;;;;;5116633;28;20475;-61
2023/08/08 11:23:14;;;;;;;2.40;1.10;;;20.70;61.30;;;;;;5116766;28;20462;-62
2023/08/08 11:25:42;;;;;;;2.37;1.33;;;20.90;59.40;;;;;;5117950;28;20440;-63
2023/08/08 11:28:10;;;;;;;2.60;1.63;;;21.10;59.00;;;;;;5117545;28;20461;-62
2023/08/08 11:30:39;;;;;;;3.57;1.50;;;21.20;57.10;;;;;;5117170;28;20429;-62
2023/08/08 11:33:07;;;;;;;2.17;1.30;;;21.00;56.30;;;;;;5116971;28;20486;-60
2023/08/08 11:35:35;;;;;;;3.80;1.70;;;20.80;56.30;;;;;;5116310;28;20450;-62
2023/08/08 11:38:04;;;;;;;2.20;1.50;;;20.80;57.10;;;;;;5116505;28;20437;-63
2023/08/08 11:40:31;;;;;;;3.13;1.70;;;20.70;57.30;;;;;;5116990;28;20442;-63
2023/08/08 11:42:59;;;;;;;4.80;1.67;;;20.60;57.20;;;;;;5117841;28;20455;-62
2023/08/08 11:45:26;;;;;;;2.60;1.43;;;20.60;57.20;;;;;;5117454;28;20432;-63
2023/08/08 11:47:55;;;;;;;4.10;1.33;;;20.60;57.40;;;;;;5118291;28;20435;-62
2023/08/08 11:50:23;;;;;;;3.63;1.90;;;20.50;57.80;;;;;;5119380;28;20455;-63
2023/08/08 11:52:54;;;;;;;4.07;1.93;;;19.90;61.40;;;;;;5118632;28;20480;-62
2023/08/08 11:55:22;;;;;;;5.53;2.27;;;19.00;66.50;;;;;;5120310;28;20441;-61
2023/08/08 11:57:49;;;;;;;3.80;2.43;;;18.40;70.30;;;;;;5124402;28;20600;-63
2023/08/08 12:00:17;;;;;;;3.70;2.63;;;18.10;73.40;;;;;;5124401;28;20443;-62
2023/08/08 12:02:45;;;;;;;4.10;1.83;;;18.20;75.10;;;;;;5126018;28;20461;-63
2023/08/08 12:05:16;;;;;;;2.03;1.40;;;18.50;75.70;;;;;;5124219;28;20475;-63
2023/08/08 12:07:45;;;;;;;1.70;1.40;;;19.00;72.50;;;;;;5124671;28;20425;-63
2023/08/08 12:10:17;;;;;;;3.17;1.70;;;19.20;69.10;;;;;;5124941;28;20452;-61
2023/08/08 12:12:44;;;;;;;4.17;1.90;;;19.20;67.80;;;;;;5119887;28;20484;-63
2023/08/08 12:15:11;;;;;;;2.70;1.63;;;19.40;67.10;;;;;;5118551;28;20426;-62
2023/08/08 12:17:39;;;;;;;3.07;1.67;;;19.70;65.70;;;;;;5119435;28;20449;-62
2023/08/08 12:20:07;;;;;;;2.70;1.40;;;19.90;64.40;;;;;;5118223;28;20442;-64
2023/08/08 12:22:34;;;;;;;3.47;1.90;;;20.10;63.20;;;;;;5118340;28;20490;-63
2023/08/08 12:25:01;;;;;;;8.73;1.83;;;20.30;63.00;;;;;;5117203;28;20463;-62
2023/08/08 12:27:29;;;;;;;2.00;1.57;;;20.60;61.30;;;;;;5116520;28;20956;-63
2023/08/08 12:29:56;;;;;;;2.70;1.80;;;20.80;59.60;;;;;;5118042;28;20445;-61
2023/08/08 12:32:28;;;;;;;3.30;1.80;;;20.90;59.00;;;;;;5119137;28;20481;-62
2023/08/08 12:34:55;;;;;;;2.70;1.40;;;21.20;58.30;;;;;;5121951;28;20909;-63
2023/08/08 12:37:23;;;;;;;2.33;1.50;;;21.30;57.50;;;;;;5121894;28;20455;-63
2023/08/08 12:39:49;;;;;;;4.47;2.30;;;21.10;57.00;;;;;;5128437;28;20443;-62
2023/08/08 12:42:16;;;;;;;2.90;1.57;;;20.90;57.30;;;;;;5131460;28;20462;-63
2023/08/08 12:44:46;;;;;;;4.07;1.83;;;20.70;57.30;;;;;;5131514;28;20944;-62
2023/08/08 12:47:13;;;;;;;3.43;1.70;;;20.60;57.70;;;;;;5133565;28;20469;-63
2023/08/08 12:49:40;;;;;;;2.63;2.37;;;20.60;57.50;;;;;;5131209;28;20827;-63
2023/08/08 12:52:07;;;;;;;2.83;1.80;;;20.70;57.50;;;;;;5131032;28;20452;-62